sensor_id;sensor_type;location;lat;lon;timestamp;pressure;altitude;pressure_sealevel;temperature;humidity
58373;BME280;44177;43.356;27.672;2023-01-29T00:01:27;98195.03;;;4.94;62.48
58373;BME280;44177;43.356;27.672;2023-01-29T00:03:52;98199.00;;;4.96;62.48
58373;BME280;44177;43.356;27.672;2023-01-29T00:06:18;98201.72;;;4.96;62.47
58373;BME280;44177;43.356;27.672;2023-01-29T00:08:43;98204.72;;;4.95;62.33
58373;BME280;44177;43.356;27.672;2023-01-29T00:11:09;98205.53;;;4.95;62.48
58373;BME280;44177;43.356;27.672;2023-01-29T00:13:34;98206.94;;;4.93;62.27
58373;BME280;44177;43.356;27.672;2023-01-29T00:16:01;98196.94;;;4.93;62.25
58373;BME280;44177;43.356;27.672;2023-01-29T00:18:27;98196.94;;;4.93;62.15
58373;BME280;44177;43.356;27.672;2023-01-29T00:20:53;98202.63;;;4.92;62.27
58373;BME280;44177;43.356;27.672;2023-01-29T00:23:19;98212.34;;;4.93;62.18
58373;BME280;44177;43.356;27.672;2023-01-29T00:25:44;98195.34;;;4.92;62.18
58373;BME280;44177;43.356;27.672;2023-01-29T00:28:11;98200.06;;;4.86;62.05
58373;BME280;44177;43.356;27.672;2023-01-29T00:30:37;98199.16;;;4.91;61.99
58373;BME280;44177;43.356;27.672;2023-01-29T00:33:04;98205.66;;;4.90;61.97
58373;BME280;44177;43.356;27.672;2023-01-29T00:35:30;98200.38;;;4.85;61.91
58373;BME280;44177;43.356;27.672;2023-01-29T00:37:56;98201.34;;;4.89;61.94
58373;BME280;44177;43.356;27.672;2023-01-29T00:40:22;98205.16;;;4.88;61.86
58373;BME280;44177;43.356;27.672;2023-01-29T00:42:48;98197.06;;;4.88;61.90
58373;BME280;44177;43.356;27.672;2023-01-29T00:45:33;98190.03;;;4.87;61.88
58373;BME280;44177;43.356;27.672;2023-01-29T00:48:01;98184.78;;;4.82;61.90
58373;BME280;44177;43.356;27.672;2023-01-29T00:50:27;98193.84;;;4.86;61.98
58373;BME280;44177;43.356;27.672;2023-01-29T00:52:52;98191.97;;;4.86;61.86
58373;BME280;44177;43.356;27.672;2023-01-29T00:55:19;98192.38;;;4.80;61.98
58373;BME280;44177;43.356;27.672;2023-01-29T00:57:44;98204.66;;;4.86;61.88
58373;BME280;44177;43.356;27.672;2023-01-29T01:00:13;98209.28;;;4.85;61.95
58373;BME280;44177;43.356;27.672;2023-01-29T01:02:39;98197.28;;;4.78;62.04
58373;BME280;44177;43.356;27.672;2023-01-29T01:05:23;98218.81;;;4.83;61.93
58373;BME280;44177;43.356;27.672;2023-01-29T01:07:51;98221.50;;;4.83;62.37
58373;BME280;44177;43.356;27.672;2023-01-29T01:10:23;98211.94;;;4.77;61.97
58373;BME280;44177;43.356;27.672;2023-01-29T01:15:17;98215.59;;;4.81;62.03
58373;BME280;44177;43.356;27.672;2023-01-29T01:17:43;98215.59;;;4.81;61.95
58373;BME280;44177;43.356;27.672;2023-01-29T01:20:09;98215.59;;;4.81;61.92
58373;BME280;44177;43.356;27.672;2023-01-29T01:22:35;98226.41;;;4.81;61.90
58373;BME280;44177;43.356;27.672;2023-01-29T01:25:00;98222.13;;;4.80;61.88
58373;BME280;44177;43.356;27.672;2023-01-29T01:27:26;98215.75;;;4.76;61.93
58373;BME280;44177;43.356;27.672;2023-01-29T01:29:51;98230.22;;;4.80;61.82
58373;BME280;44177;43.356;27.672;2023-01-29T01:32:17;98227.53;;;4.80;61.99
58373;BME280;44177;43.356;27.672;2023-01-29T01:34:42;98220.53;;;4.79;62.11
58373;BME280;44177;43.356;27.672;2023-01-29T01:37:11;98215.25;;;4.73;62.14
58373;BME280;44177;43.356;27.672;2023-01-29T01:39:36;98209.97;;;4.68;62.11
58373;BME280;44177;43.356;27.672;2023-01-29T01:42:01;98224.63;;;4.76;62.02
58373;BME280;44177;43.356;27.672;2023-01-29T01:44:56;98218.13;;;4.77;61.93
58373;BME280;44177;43.356;27.672;2023-01-29T01:50:40;98219.53;;;4.74;62.03
58373;BME280;44177;43.356;27.672;2023-01-29T01:53:17;98226.84;;;4.74;61.94
58373;BME280;44177;43.356;27.672;2023-01-29T01:55:48;98239.56;;;4.73;61.90
58373;BME280;44177;43.356;27.672;2023-01-29T01:58:21;98227.78;;;4.69;61.99
58373;BME280;44177;43.356;27.672;2023-01-29T02:00:49;98247.69;;;4.73;62.04
58373;BME280;44177;43.356;27.672;2023-01-29T02:03:14;98239.56;;;4.73;62.11
58373;BME280;44177;43.356;27.672;2023-01-29T02:06:00;98248.00;;;4.72;62.10
58373;BME280;44177;43.356;27.672;2023-01-29T02:09:01;98244.47;;;4.71;62.12
58373;BME280;44177;43.356;27.672;2023-01-29T02:11:47;98255.28;;;4.71;62.07
58373;BME280;44177;43.356;27.672;2023-01-29T02:14:13;98244.47;;;4.71;61.96
58373;BME280;44177;43.356;27.672;2023-01-29T02:16:38;98257.97;;;4.71;61.97
58373;BME280;44177;43.356;27.672;2023-01-29T02:19:49;98259.09;;;4.70;62.07
58373;BME280;44177;43.356;27.672;2023-01-29T02:22:06;98260.69;;;4.71;62.10
58373;BME280;44177;43.356;27.672;2023-01-29T02:24:46;98251.78;;;4.71;62.05
58373;BME280;44177;43.356;27.672;2023-01-29T02:27:18;98252.91;;;4.70;62.15
58373;BME280;44177;43.356;27.672;2023-01-29T02:30:04;98245.53;;;4.62;61.94
58373;BME280;44177;43.356;27.672;2023-01-29T02:33:34;98254.81;;;4.69;62.12
58373;BME280;44177;43.356;27.672;2023-01-29T02:35:57;98255.22;;;4.63;62.25
58373;BME280;44177;43.356;27.672;2023-01-29T02:38:31;98264.03;;;4.68;62.02
58373;BME280;44177;43.356;27.672;2023-01-29T02:41:01;98262.91;;;4.69;62.16
58373;BME280;44177;43.356;27.672;2023-01-29T02:46:20;98273.72;;;4.69;62.09
58373;BME280;44177;43.356;27.672;2023-01-29T02:49:14;98268.91;;;4.66;62.24
58373;BME280;44177;43.356;27.672;2023-01-29T02:56:56;98279.72;;;4.66;62.21
58373;BME280;44177;43.356;27.672;2023-01-29T02:59:43;98283.22;;;4.67;62.06
58373;BME280;44177;43.356;27.672;2023-01-29T03:02:15;98283.22;;;4.67;62.23
58373;BME280;44177;43.356;27.672;2023-01-29T03:04:50;98287.84;;;4.66;62.14
58373;BME280;44177;43.356;27.672;2023-01-29T03:07:23;98286.75;;;4.67;62.02
58373;BME280;44177;43.356;27.672;2023-01-29T03:10:20;98292.44;;;4.66;62.11
58373;BME280;44177;43.356;27.672;2023-01-29T03:12:51;98288.94;;;4.65;62.15
58373;BME280;44177;43.356;27.672;2023-01-29T03:15:25;98288.94;;;4.65;62.14
58373;BME280;44177;43.356;27.672;2023-01-29T03:20:29;98292.75;;;4.64;62.33
58373;BME280;44177;43.356;27.672;2023-01-29T03:23:02;98283.22;;;4.67;62.30
58373;BME280;44177;43.356;27.672;2023-01-29T03:25:30;98281.94;;;4.64;62.01
58373;BME280;44177;43.356;27.672;2023-01-29T03:28:17;98288.94;;;4.65;62.26
58373;BME280;44177;43.356;27.672;2023-01-29T03:31:05;98292.75;;;4.64;62.25
58373;BME280;44177;43.356;27.672;2023-01-29T03:36:44;98281.94;;;4.64;62.24
58373;BME280;44177;43.356;27.672;2023-01-29T03:39:14;98285.72;;;4.63;62.35
58373;BME280;44177;43.356;27.672;2023-01-29T03:42:18;98290.03;;;4.64;62.38
58373;BME280;44177;43.356;27.672;2023-01-29T03:47:45;98298.47;;;4.63;62.50
58373;BME280;44177;43.356;27.672;2023-01-29T03:52:46;98294.94;;;4.62;62.58
58373;BME280;44177;43.356;27.672;2023-01-29T04:00:31;98294.94;;;4.62;62.53
58373;BME280;44177;43.356;27.672;2023-01-29T04:03:07;98307.34;;;4.63;62.46
58373;BME280;44177;43.356;27.672;2023-01-29T04:05:42;98301.94;;;4.63;62.67
58373;BME280;44177;43.356;27.672;2023-01-29T04:08:15;98304.97;;;4.62;62.60
58373;BME280;44177;43.356;27.672;2023-01-29T04:10:43;98301.94;;;4.63;62.66
58373;BME280;44177;43.356;27.672;2023-01-29T04:13:12;98303.03;;;4.62;62.62
58373;BME280;44177;43.356;27.672;2023-01-29T04:15:44;98306.56;;;4.63;62.61
58373;BME280;44177;43.356;27.672;2023-01-29T04:18:11;98312.75;;;4.63;62.54
58373;BME280;44177;43.356;27.672;2023-01-29T04:20:37;98315.47;;;4.63;62.57
58373;BME280;44177;43.356;27.672;2023-01-29T04:23:05;98312.47;;;4.65;62.56
58373;BME280;44177;43.356;27.672;2023-01-29T04:25:41;98307.34;;;4.63;62.60
58373;BME280;44177;43.356;27.672;2023-01-29T04:28:18;98316.56;;;4.62;62.63
58373;BME280;44177;43.356;27.672;2023-01-29T04:30:53;98319.25;;;4.62;62.57
58373;BME280;44177;43.356;27.672;2023-01-29T04:33:33;98318.97;;;4.64;62.53
58373;BME280;44177;43.356;27.672;2023-01-29T04:41:33;98305.75;;;4.62;62.66
58373;BME280;44177;43.356;27.672;2023-01-29T04:49:32;98321.97;;;4.62;62.68
58373;BME280;44177;43.356;27.672;2023-01-29T04:52:44;98318.16;;;4.63;62.83
58373;BME280;44177;43.356;27.672;2023-01-29T04:55:10;98311.97;;;4.63;62.96
58373;BME280;44177;43.356;27.672;2023-01-29T05:00:23;98307.97;;;4.60;62.82
58373;BME280;44177;43.356;27.672;2023-01-29T05:02:52;98321.97;;;4.62;62.82
58373;BME280;44177;43.356;27.672;2023-01-29T05:05:19;98304.59;;;4.54;62.78
58373;BME280;44177;43.356;27.672;2023-01-29T05:07:45;98324.66;;;4.62;62.84
58373;BME280;44177;43.356;27.672;2023-01-29T05:10:13;98321.97;;;4.62;62.85
58373;BME280;44177;43.356;27.672;2023-01-29T05:12:42;98324.66;;;4.62;62.54
58373;BME280;44177;43.356;27.672;2023-01-29T05:15:15;98331.19;;;4.61;62.59
58373;BME280;44177;43.356;27.672;2023-01-29T05:17:42;98325.78;;;4.61;62.46
58373;BME280;44177;43.356;27.672;2023-01-29T05:20:09;98326.38;;;4.58;62.45
58373;BME280;44177;43.356;27.672;2023-01-29T05:22:37;98327.19;;;4.58;62.48
58373;BME280;44177;43.356;27.672;2023-01-29T05:25:27;98331.19;;;4.61;62.41
58373;BME280;44177;43.356;27.672;2023-01-29T05:27:52;98330.38;;;4.61;62.64
58373;BME280;44177;43.356;27.672;2023-01-29T05:30:45;98334.19;;;4.59;62.45
58373;BME280;44177;43.356;27.672;2023-01-29T05:33:28;98331.47;;;4.59;62.65
58373;BME280;44177;43.356;27.672;2023-01-29T05:35:55;98335.28;;;4.58;62.65
58373;BME280;44177;43.356;27.672;2023-01-29T05:38:21;98338.81;;;4.59;62.74
58373;BME280;44177;43.356;27.672;2023-01-29T05:40:47;98333.41;;;4.59;62.73
58373;BME280;44177;43.356;27.672;2023-01-29T05:43:23;98341.50;;;4.59;62.66
58373;BME280;44177;43.356;27.672;2023-01-29T05:45:52;98349.59;;;4.59;62.66
58373;BME280;44177;43.356;27.672;2023-01-29T05:48:17;98350.72;;;4.58;62.72
58373;BME280;44177;43.356;27.672;2023-01-29T05:50:43;98339.91;;;4.58;62.57
58373;BME280;44177;43.356;27.672;2023-01-29T05:53:08;98349.91;;;4.57;62.77
58373;BME280;44177;43.356;27.672;2023-01-29T05:55:34;98352.63;;;4.57;62.90
58373;BME280;44177;43.356;27.672;2023-01-29T05:57:59;98364.22;;;4.58;62.76
58373;BME280;44177;43.356;27.672;2023-01-29T06:00:25;98357.22;;;4.57;62.63
58373;BME280;44177;43.356;27.672;2023-01-29T06:02:50;98359.91;;;4.57;62.71
58373;BME280;44177;43.356;27.672;2023-01-29T06:05:16;98367.72;;;4.58;62.67
58373;BME280;44177;43.356;27.672;2023-01-29T06:07:41;98373.94;;;4.59;62.71
58373;BME280;44177;43.356;27.672;2023-01-29T06:10:14;98370.72;;;4.57;62.86
58373;BME280;44177;43.356;27.672;2023-01-29T06:12:40;98364.22;;;4.58;62.68
58373;BME280;44177;43.356;27.672;2023-01-29T06:15:06;98376.63;;;4.59;62.61
58373;BME280;44177;43.356;27.672;2023-01-29T06:17:32;98369.63;;;4.58;62.59
58373;BME280;44177;43.356;27.672;2023-01-29T06:19:57;98371.22;;;4.59;62.61
58373;BME280;44177;43.356;27.672;2023-01-29T06:22:23;98383.91;;;4.58;62.55
58373;BME280;44177;43.356;27.672;2023-01-29T06:24:48;98361.63;;;4.53;62.58
58373;BME280;44177;43.356;27.672;2023-01-29T06:27:14;98383.91;;;4.58;62.66
58373;BME280;44177;43.356;27.672;2023-01-29T06:29:39;98379.66;;;4.57;62.49
58373;BME280;44177;43.356;27.672;2023-01-29T06:32:04;98393.63;;;4.59;62.48
58373;BME280;44177;43.356;27.672;2023-01-29T06:34:30;98385.44;;;4.51;62.46
58373;BME280;44177;43.356;27.672;2023-01-29T06:36:56;98393.94;;;4.58;62.57
58373;BME280;44177;43.356;27.672;2023-01-29T06:39:21;98386.94;;;4.57;62.46
58373;BME280;44177;43.356;27.672;2023-01-29T06:41:46;98385.84;;;4.58;62.45
58373;BME280;44177;43.356;27.672;2023-01-29T06:44:12;98388.34;;;4.54;62.34
58373;BME280;44177;43.356;27.672;2023-01-29T06:46:37;98395.03;;;4.57;62.39
58373;BME280;44177;43.356;27.672;2023-01-29T06:49:03;98401.25;;;4.57;62.46
58373;BME280;44177;43.356;27.672;2023-01-29T06:51:28;98402.03;;;4.58;62.41
58373;BME280;44177;43.356;27.672;2023-01-29T06:53:54;98402.84;;;4.58;62.31
58373;BME280;44177;43.356;27.672;2023-01-29T06:56:21;98413.34;;;4.60;62.44
58373;BME280;44177;43.356;27.672;2023-01-29T06:58:47;98404.75;;;4.58;62.43
58373;BME280;44177;43.356;27.672;2023-01-29T07:01:13;98414.47;;;4.59;62.40
58373;BME280;44177;43.356;27.672;2023-01-29T07:03:38;98415.56;;;4.58;62.45
58373;BME280;44177;43.356;27.672;2023-01-29T07:06:05;98418.25;;;4.58;62.39
58373;BME280;44177;43.356;27.672;2023-01-29T07:08:35;98429.06;;;4.58;62.42
58373;BME280;44177;43.356;27.672;2023-01-29T07:11:02;98413.63;;;4.58;62.40
58373;BME280;44177;43.356;27.672;2023-01-29T07:13:28;98415.56;;;4.58;62.39
58373;BME280;44177;43.356;27.672;2023-01-29T07:15:57;98416.66;;;4.57;62.31
58373;BME280;44177;43.356;27.672;2023-01-29T07:18:23;98423.66;;;4.58;62.28
58373;BME280;44177;43.356;27.672;2023-01-29T07:20:48;98417.47;;;4.57;62.23
58373;BME280;44177;43.356;27.672;2023-01-29T07:23:14;98434.47;;;4.58;62.19
58373;BME280;44177;43.356;27.672;2023-01-29T07:25:40;98425.66;;;4.52;62.21
58373;BME280;44177;43.356;27.672;2023-01-29T07:28:05;98432.88;;;4.57;62.13
58373;BME280;44177;43.356;27.672;2023-01-29T07:30:31;98437.16;;;4.58;62.08
58373;BME280;44177;43.356;27.672;2023-01-29T07:33:08;98440.66;;;4.58;62.23
58373;BME280;44177;43.356;27.672;2023-01-29T07:35:39;98418.25;;;4.44;62.06
58373;BME280;44177;43.356;27.672;2023-01-29T07:38:06;98447.97;;;4.58;62.12
58373;BME280;44177;43.356;27.672;2023-01-29T07:40:32;98452.28;;;4.59;62.10
58373;BME280;44177;43.356;27.672;2023-01-29T07:42:58;98454.47;;;4.57;62.11
58373;BME280;44177;43.356;27.672;2023-01-29T07:45:24;98443.66;;;4.57;61.94
58373;BME280;44177;43.356;27.672;2023-01-29T07:47:53;98466.09;;;4.57;62.16
58373;BME280;44177;43.356;27.672;2023-01-29T07:50:22;98449.06;;;4.57;62.15
58373;BME280;44177;43.356;27.672;2023-01-29T07:52:48;98460.69;;;4.57;62.25
58373;BME280;44177;43.356;27.672;2023-01-29T07:55:14;98460.69;;;4.57;62.14
58373;BME280;44177;43.356;27.672;2023-01-29T07:57:40;98459.88;;;4.57;62.16
58373;BME280;44177;43.356;27.672;2023-01-29T08:00:05;98472.28;;;4.58;62.16
58373;BME280;44177;43.356;27.672;2023-01-29T08:02:31;98466.91;;;4.58;62.13
58373;BME280;44177;43.356;27.672;2023-01-29T08:04:56;98471.19;;;4.59;62.22
58373;BME280;44177;43.356;27.672;2023-01-29T08:07:22;98455.06;;;4.54;62.01
58373;BME280;44177;43.356;27.672;2023-01-29T08:09:47;98460.00;;;4.52;61.97
58373;BME280;44177;43.356;27.672;2023-01-29T08:12:13;98472.00;;;4.59;62.00
58373;BME280;44177;43.356;27.672;2023-01-29T08:14:39;98474.69;;;4.59;61.98
58373;BME280;44177;43.356;27.672;2023-01-29T08:17:04;98463.59;;;4.61;61.90
58373;BME280;44177;43.356;27.672;2023-01-29T08:19:30;98473.28;;;4.62;61.88
58373;BME280;44177;43.356;27.672;2023-01-29T08:21:55;98474.88;;;4.63;61.96
58373;BME280;44177;43.356;27.672;2023-01-29T08:24:21;98469.50;;;4.63;61.91
58373;BME280;44177;43.356;27.672;2023-01-29T08:26:46;98462.97;;;4.64;61.95
58373;BME280;44177;43.356;27.672;2023-01-29T08:29:12;98465.28;;;4.57;61.87
58373;BME280;44177;43.356;27.672;2023-01-29T08:31:37;98474.31;;;4.66;61.84
58373;BME280;44177;43.356;27.672;2023-01-29T08:34:03;98479.72;;;4.66;61.95
58373;BME280;44177;43.356;27.672;2023-01-29T08:36:28;98483.19;;;4.67;61.85
58373;BME280;44177;43.356;27.672;2023-01-29T08:38:54;98487.50;;;4.68;61.92
58373;BME280;44177;43.356;27.672;2023-01-29T08:41:19;98485.63;;;4.68;61.84
58373;BME280;44177;43.356;27.672;2023-01-29T08:43:45;98483.72;;;4.69;61.87
58373;BME280;44177;43.356;27.672;2023-01-29T08:46:11;98478.81;;;4.71;61.81
58373;BME280;44177;43.356;27.672;2023-01-29T08:48:36;98491.50;;;4.70;61.59
58373;BME280;44177;43.356;27.672;2023-01-29T08:51:02;98488.53;;;4.72;61.63
58373;BME280;44177;43.356;27.672;2023-01-29T08:53:29;98482.03;;;4.73;61.60
58373;BME280;44177;43.356;27.672;2023-01-29T08:55:54;98486.50;;;4.78;61.68
58373;BME280;44177;43.356;27.672;2023-01-29T08:58:20;98487.00;;;4.80;61.44
58373;BME280;44177;43.356;27.672;2023-01-29T09:00:45;98490.22;;;4.82;61.13
58373;BME280;44177;43.356;27.672;2023-01-29T09:03:11;98490.09;;;4.87;61.14
58373;BME280;44177;43.356;27.672;2023-01-29T09:05:38;98491.72;;;4.88;60.95
58373;BME280;44177;43.356;27.672;2023-01-29T09:08:05;98497.44;;;4.86;60.96
58373;BME280;44177;43.356;27.672;2023-01-29T09:10:30;98493.44;;;4.84;61.06
58373;BME280;44177;43.356;27.672;2023-01-29T09:12:56;98495.63;;;4.82;61.20
58373;BME280;44177;43.356;27.672;2023-01-29T09:15:22;98481.72;;;4.74;61.20
58373;BME280;44177;43.356;27.672;2023-01-29T09:17:47;98501.63;;;4.79;61.08
58373;BME280;44177;43.356;27.672;2023-01-29T09:20:17;98495.72;;;4.77;61.11
58373;BME280;44177;43.356;27.672;2023-01-29T09:22:44;98500.31;;;4.76;61.19
58373;BME280;44177;43.356;27.672;2023-01-29T09:25:09;98486.03;;;4.76;61.46
58373;BME280;44177;43.356;27.672;2023-01-29T09:27:35;98487.13;;;4.74;61.47
58373;BME280;44177;43.356;27.672;2023-01-29T09:30:00;98490.91;;;4.73;61.42
58373;BME280;44177;43.356;27.672;2023-01-29T09:32:26;98490.91;;;4.73;61.37
58373;BME280;44177;43.356;27.672;2023-01-29T09:34:55;98496.63;;;4.72;61.56
58373;BME280;44177;43.356;27.672;2023-01-29T09:37:20;98487.72;;;4.71;61.65
58373;BME280;44177;43.356;27.672;2023-01-29T09:39:48;98478.50;;;4.72;61.55
58373;BME280;44177;43.356;27.672;2023-01-29T09:47:35;98471.09;;;4.64;61.48
58373;BME280;44177;43.356;27.672;2023-01-29T09:50:55;98486.41;;;4.69;61.72
58373;BME280;44177;43.356;27.672;2023-01-29T09:53:10;98483.72;;;4.69;61.64
58373;BME280;44177;43.356;27.672;2023-01-29T09:55:44;98472.91;;;4.69;61.72
58373;BME280;44177;43.356;27.672;2023-01-29T09:58:17;98464.00;;;4.68;61.76
58373;BME280;44177;43.356;27.672;2023-01-29T10:14:17;98454.09;;;4.64;61.83
58373;BME280;44177;43.356;27.672;2023-01-29T10:19:36;98458.69;;;4.63;61.81
58373;BME280;44177;43.356;27.672;2023-01-29T10:25:21;98459.28;;;4.60;61.96
58373;BME280;44177;43.356;27.672;2023-01-29T10:27:56;98451.19;;;4.60;62.05
58373;BME280;44177;43.356;27.672;2023-01-29T10:30:37;98453.97;;;4.55;62.07
58373;BME280;44177;43.356;27.672;2023-01-29T10:33:05;98455.78;;;4.59;62.23
58373;BME280;44177;43.356;27.672;2023-01-29T10:35:40;98441.47;;;4.59;62.24
58373;BME280;44177;43.356;27.672;2023-01-29T10:46:33;98459.28;;;4.60;62.47
58373;BME280;44177;43.356;27.672;2023-01-29T11:00:35;98438.28;;;4.57;62.58
58373;BME280;44177;43.356;27.672;2023-01-29T11:03:22;98437.69;;;4.60;62.52
58373;BME280;44177;43.356;27.672;2023-01-29T11:08:54;98443.88;;;4.61;62.69
58373;BME280;44177;43.356;27.672;2023-01-29T11:11:26;98440.66;;;4.58;62.82
58373;BME280;44177;43.356;27.672;2023-01-29T11:14:05;98446.88;;;4.59;62.83
58373;BME280;44177;43.356;27.672;2023-01-29T11:16:46;98433.69;;;4.57;62.68
58373;BME280;44177;43.356;27.672;2023-01-29T11:19:12;98443.88;;;4.61;62.51
58373;BME280;44177;43.356;27.672;2023-01-29T11:21:55;98444.69;;;4.61;62.60
58373;BME280;44177;43.356;27.672;2023-01-29T11:24:21;98440.84;;;4.62;62.42
58373;BME280;44177;43.356;27.672;2023-01-29T11:26:49;98414.47;;;4.45;62.52
58373;BME280;44177;43.356;27.672;2023-01-29T11:29:38;98428.66;;;4.51;62.32
58373;BME280;44177;43.356;27.672;2023-01-29T11:32:14;98443.88;;;4.61;62.22
58373;BME280;44177;43.356;27.672;2023-01-29T11:35:04;98434.66;;;4.62;62.28
58373;BME280;44177;43.356;27.672;2023-01-29T11:37:44;98442.00;;;4.61;62.37
58373;BME280;44177;43.356;27.672;2023-01-29T11:42:45;98435.47;;;4.62;62.35
58373;BME280;44177;43.356;27.672;2023-01-29T11:45:29;98431.97;;;4.62;62.25
58373;BME280;44177;43.356;27.672;2023-01-29T11:47:58;98433.88;;;4.61;62.17
58373;BME280;44177;43.356;27.672;2023-01-29T11:50:27;98431.97;;;4.62;62.07
58373;BME280;44177;43.356;27.672;2023-01-29T11:52:53;98426.06;;;4.59;62.05
58373;BME280;44177;43.356;27.672;2023-01-29T11:55:22;98432.75;;;4.62;62.18
58373;BME280;44177;43.356;27.672;2023-01-29T11:57:52;98427.47;;;4.57;62.21
58373;BME280;44177;43.356;27.672;2023-01-29T12:00:26;98430.34;;;4.61;62.34
58373;BME280;44177;43.356;27.672;2023-01-29T12:03:14;98422.56;;;4.59;62.33
58373;BME280;44177;43.356;27.672;2023-01-29T12:05:51;98416.66;;;4.57;62.41
58373;BME280;44177;43.356;27.672;2023-01-29T12:08:18;98423.66;;;4.58;62.32
58373;BME280;44177;43.356;27.672;2023-01-29T12:10:45;98422.56;;;4.59;62.46
58373;BME280;44177;43.356;27.672;2023-01-29T12:15:40;98418.25;;;4.58;62.46
58373;BME280;44177;43.356;27.672;2023-01-29T12:20:48;98426.88;;;4.60;62.34
58373;BME280;44177;43.356;27.672;2023-01-29T12:23:24;98413.94;;;4.57;62.15
58373;BME280;44177;43.356;27.672;2023-01-29T12:28:41;98421.47;;;4.60;62.13
58373;BME280;44177;43.356;27.672;2023-01-29T12:34:00;98419.03;;;4.58;62.21
58373;BME280;44177;43.356;27.672;2023-01-29T12:36:49;98430.97;;;4.57;62.20
58373;BME280;44177;43.356;27.672;2023-01-29T12:39:20;98422.38;;;4.55;62.32
58373;BME280;44177;43.356;27.672;2023-01-29T12:42:04;98423.66;;;4.58;62.29
58373;BME280;44177;43.356;27.672;2023-01-29T12:44:37;98430.97;;;4.57;62.25
58373;BME280;44177;43.356;27.672;2023-01-29T12:47:11;98422.06;;;4.57;62.29
58373;BME280;44177;43.356;27.672;2023-01-29T12:49:40;98434.78;;;4.56;62.24
58373;BME280;44177;43.356;27.672;2023-01-29T12:54:50;98427.47;;;4.57;62.15
58373;BME280;44177;43.356;27.672;2023-01-29T12:57:41;98431.25;;;4.56;62.12
58373;BME280;44177;43.356;27.672;2023-01-29T13:00:24;98433.69;;;4.57;62.28
58373;BME280;44177;43.356;27.672;2023-01-29T13:05:37;98450.16;;;4.56;62.44
58373;BME280;44177;43.356;27.672;2023-01-29T13:08:09;98440.47;;;4.55;62.27
58373;BME280;44177;43.356;27.672;2023-01-29T13:10:42;98447.78;;;4.54;62.52
58373;BME280;44177;43.356;27.672;2023-01-29T13:13:27;98442.06;;;4.56;62.29
58373;BME280;44177;43.356;27.672;2023-01-29T13:15:56;98452.88;;;4.56;62.36
58373;BME280;44177;43.356;27.672;2023-01-29T13:21:16;98452.09;;;4.55;62.38
58373;BME280;44177;43.356;27.672;2023-01-29T13:23:45;98452.88;;;4.56;62.52
58373;BME280;44177;43.356;27.672;2023-01-29T13:26:16;98452.88;;;4.56;62.53
58373;BME280;44177;43.356;27.672;2023-01-29T13:28:43;98455.56;;;4.56;62.34
58373;BME280;44177;43.356;27.672;2023-01-29T13:31:28;98459.09;;;4.56;62.40
58373;BME280;44177;43.356;27.672;2023-01-29T13:34:12;98456.69;;;4.55;62.50
58373;BME280;44177;43.356;27.672;2023-01-29T13:36:54;98460.47;;;4.54;62.58
58373;BME280;44177;43.356;27.672;2023-01-29T13:41:55;98458.09;;;4.52;62.67
58373;BME280;44177;43.356;27.672;2023-01-29T13:44:34;98454.28;;;4.53;62.73
58373;BME280;44177;43.356;27.672;2023-01-29T13:47:07;98462.06;;;4.55;62.65
58373;BME280;44177;43.356;27.672;2023-01-29T13:49:43;98460.47;;;4.54;62.62
58373;BME280;44177;43.356;27.672;2023-01-29T13:54:39;98458.91;;;4.53;62.61
58373;BME280;44177;43.356;27.672;2023-01-29T13:57:58;98448.09;;;4.53;62.54
58373;BME280;44177;43.356;27.672;2023-01-29T14:02:46;98461.09;;;4.51;62.75
58373;BME280;44177;43.356;27.672;2023-01-29T14:10:34;98462.69;;;4.52;62.79
58373;BME280;44177;43.356;27.672;2023-01-29T14:15:36;98464.59;;;4.51;62.67
58373;BME280;44177;43.356;27.672;2023-01-29T14:18:19;98468.09;;;4.52;62.79
58373;BME280;44177;43.356;27.672;2023-01-29T14:23:27;98471.59;;;4.52;62.89
58373;BME280;44177;43.356;27.672;2023-01-29T14:25:54;98468.09;;;4.52;62.83
58373;BME280;44177;43.356;27.672;2023-01-29T14:28:23;98468.69;;;4.49;62.78
58373;BME280;44177;43.356;27.672;2023-01-29T14:30:51;98473.78;;;4.50;62.84
58373;BME280;44177;43.356;27.672;2023-01-29T14:33:37;98475.69;;;4.50;62.85
58373;BME280;44177;43.356;27.672;2023-01-29T14:36:14;98475.69;;;4.50;62.72
58373;BME280;44177;43.356;27.672;2023-01-29T14:38:47;98465.78;;;4.45;62.81
58373;BME280;44177;43.356;27.672;2023-01-29T14:41:30;98474.09;;;4.49;62.68
58373;BME280;44177;43.356;27.672;2023-01-29T14:46:59;98474.09;;;4.49;62.65
58373;BME280;44177;43.356;27.672;2023-01-29T14:49:51;98467.91;;;4.48;62.58
58373;BME280;44177;43.356;27.672;2023-01-29T14:52:40;98472.47;;;4.48;62.62
58373;BME280;44177;43.356;27.672;2023-01-29T14:55:08;98478.97;;;4.47;62.72
58373;BME280;44177;43.356;27.672;2023-01-29T14:57:35;98472.06;;;4.40;62.87
58373;BME280;44177;43.356;27.672;2023-01-29T15:00:16;98473.09;;;4.45;62.82
58373;BME280;44177;43.356;27.672;2023-01-29T15:02:45;98472.00;;;4.46;62.76
58373;BME280;44177;43.356;27.672;2023-01-29T15:05:16;98478.50;;;4.45;62.74
58373;BME280;44177;43.356;27.672;2023-01-29T15:07:50;98480.38;;;4.44;62.73
58373;BME280;44177;43.356;27.672;2023-01-29T15:13:03;98485.00;;;4.43;62.82
58373;BME280;44177;43.356;27.672;2023-01-29T15:15:53;98487.69;;;4.43;62.90
58373;BME280;44177;43.356;27.672;2023-01-29T15:18:39;98490.41;;;4.43;62.97
58373;BME280;44177;43.356;27.672;2023-01-29T15:21:11;98475.28;;;4.42;62.82
58373;BME280;44177;43.356;27.672;2023-01-29T15:23:37;98481.47;;;4.43;62.87
58373;BME280;44177;43.356;27.672;2023-01-29T15:26:06;98483.41;;;4.42;62.76
58373;BME280;44177;43.356;27.672;2023-01-29T15:28:33;98483.41;;;4.42;62.81
58373;BME280;44177;43.356;27.672;2023-01-29T15:31:04;98486.09;;;4.42;62.74
58373;BME280;44177;43.356;27.672;2023-01-29T15:33:31;98489.69;;;4.38;62.89
58373;BME280;44177;43.356;27.672;2023-01-29T15:35:59;98490.69;;;4.42;62.86
58373;BME280;44177;43.356;27.672;2023-01-29T15:38:26;98494.50;;;4.41;62.91